Terminal Aerodrome Forecast
Issued by NWS

Home | Current Version | Previous Version | Text Only | Print | Product List | Glossary On
Versions: 1 2 3 4 5 6 7 8 9 10 11 12 13 14 15 16 17 18 19 20 21 22 23 24 25 26 27 28 29 30 31 32
000
FTUS43 KFGF 232339
TAFTVF
TAF
KTVF 232339Z 2400/2424 18006KT P6SM SCT025 OVC070
      TEMPO 2400/2402 P6SM -RA OVC030
     FM240200 23005KT P6SM OVC080
     FM240800 34006KT P6SM BKN015
     FM241200 36009KT P6SM SCT025
     FM242000 02010KT P6SM SCT070=

USA.gov is the U.S. government's official web portal to all federal, state and local government web resources and services.